Airfield :
LOGIN :

Register | Disclaimer

   EN    FR    IT 

 










Legend :    VFR   Marginal VFR   IFR   Intensive IFR   Very Intensive IFR
Visi :
Ceiling :
>= 8 km
>= 3000ft
5 to 8 km
1000 to 3000 ft
1500m to 5 km
500 to 1000 ft
800 to 1500m
200 to 500 ft
< 800m
< 200 ft
Symbols :   Thunderstorms  Fog  Heavy snow  Heavy precipitations  Wind > 20 kt
SIGMETs :     Misc.  Thunderstorms  Icing  Turbulence  Mountain Waves  Volcanic Ashes







- Airport Elevation : 416 ft
- IATA code : OVD


LEAS - Asturias

CURRENT METAR :
  • 250330Z AUTO 24006KT 150V310 9999 FEW050 10/02 Q1000

EXPIRED METARs :
  • 250300Z AUTO 24007KT 9999 FEW059 10/02 Q1000
  • 250230Z AUTO 23009KT 200V260 CAVOK 10/02 Q0999
  • 250200Z AUTO 24008KT CAVOK 09/02 Q0999
  • 250130Z AUTO 25008KT 200V300 CAVOK 09/02 Q0999
  • 250100Z AUTO 24007KT 210V280 9999 NCD 09/03 Q0999

TAF TAF LEAS
Valid from the 25 at 03:00 until the 26 at 03:00 UTC


250200Z 2503/2603 24009KT 9999 SCT040 TX16/2514Z TN07/2506Z
TEMPO 2503/2521 SCT030TCU
TEMPO 2503/2603 24015G25KT
PROB40
TEMPO 2512/2521 25025G40KT
PROB40
TEMPO 2512/2603 3000 SHRA TS SCT020TCU SCT030CB
No reported NOTAMs for that airfield.
1 SIGMET reported for the Madrid FIR (LECM) :
 
Severe turbulence
LECM SIGMET 12 VALID 242300/250300 LEVA
LECM MADRID FIR SEV TURB FCST WI N4247 W00241 - N4114 W00038 - N4019 W00058 - N4240 W00405 - N4247 W00241 SFC/FL100 STNR NC=



MET'MAP, your aeronautical weather chart ! - Copyright ORBIFLY December 2007 - Disclaimer

ORBIFLY MET'MAP TEAM :

Programming & Development : Alexandra Zaïnal
Concept & Development : Baudouin d'Aumeries
Co-Development & Prog : Marc-Olivier Méhu
Technical & hardware support : Manuel Goepfert

Contact : metmap@orbifly.com




SOURCES & CREDITS :

   NOAA